Lemon Grove, CA (91945)

7:14 AM PDT on August 29, 2014 (GMT -0700)
Jamacha/Lomita | Change Station
CLOSE
Current Station
Personal Weather Station
Location: SAN DIEGO, CA
Elevation: 383 ft
Nearby Weather Stations

Elev 383 ft 32.72 °N, 117.04 °W | Updated 9 seconds ago

Clear
Clear
68.2 °F
Feels Like 68.2 °F
N
0.0
Wind Variable Wind from SE
Gusts 0.0 mph

Today
High -- | Low -- °F
--% Chance of Precip.
Yesterday
High -- | Low -- °F
Precip. -- in
6:20 AM 7:16 PM
Waxing Crescent, 14% visible
Pressure 29.91 in
Visibility 9.0 miles
Clouds Clear
Dew Point 59 °F
Humidity 73%
Rainfall 0.00 in
Snow Depth Not available.
UV 0 out of 12
Pollen 7.70 out of 12
Ozone Good
PM2.5 Good
Flu Activity Not available.
METAR KSEE 291355Z AUTO 00000KT 9SM CLR 18/11 A2991 RMK AO2

More Conditions Fewer Conditions

Pressure 29.91 in
Visibility 9.0 miles
Clouds Clear
Dew Point 59 °F
Humidity 73%
Rainfall 0.00 in
Snow Depth Not available.
UV 0 out of 12
Pollen 7.70 out of 12
Ozone Good
PM2.5 Good
Flu Activity Not available.
METAR KSEE 291355Z AUTO 00000KT 9SM CLR 18/11 A2991 RMK AO2

More Conditions Fewer Conditions

10-Day Weather Forecast

Almanac

Astronomy

Aug. 29, 2014 Rise Set
Actual Time 6:20 AM PDT 7:16 PM PDT
Civil Twilight 5:55 AM PDT 7:41 PM PDT
Nautical Twilight 5:25 AM PDT 8:11 PM PDT
Astronomical Twilight 4:55 AM PDT 8:42 PM PDT
Moon 10:00 AM PDT 9:32 PM PDT
Length of Visible Light 13h 46m
Length of Day
12h 55m
Tomorrow will be 1m 55s shorter.
Waxing Crescent, 14% of the Moon is Illuminated
Today
Waxing Crescent
Sep 2
First Quarter
Sep 8
Full
Sep 15
Last Quarter
Sep 24
New

Today's Extremes

State Highs State Lows

Community

WunderPhotos

Upload Photos

1,748,240 photos uploaded!

Nearby

Air Quality

  Air Quality AQ Index Pollutant
Yesterday Moderate
PM2.5
Current Good
PM2.5
Current Good
OZONE
Friday Moderate
PM2.5
Friday Moderate
OZONE

Snow Depth

Station Depth Elevation
Leavitt Lake 0 in 9400 ft
Leavitt Meadows 1 in 7200 ft
Sonora Pass 0 in 8800 ft
Monitor Pass 0 in 8350 ft
Blue Lakes 0 in 8000 ft

Earthquake Activity

City Distance Mag. Time & Date
No recent earthquake activity has been reported nearby.
Minimum magnitude displayed is 2.5.

Coastal Water Temperatures

Place Temperature
La Jolla, CA 73.0 °F
San Diego, CA 73.9 °F

Nearby Weather Stations